sensor_id;sensor_type;location;lat;lon;timestamp;pressure;altitude;pressure_sealevel;temperature;humidity
77869;BME280;67231;59.144;37.934;2024-03-08T00:00:06;100089.03;;;-2.14;75.88
77869;BME280;67231;59.144;37.934;2024-03-08T00:02:39;100094.25;;;-2.14;75.59
77869;BME280;67231;59.144;37.934;2024-03-08T00:05:07;100091.66;;;-2.14;75.73
77869;BME280;67231;59.144;37.934;2024-03-08T00:07:38;100086.44;;;-2.14;75.60
77869;BME280;67231;59.144;37.934;2024-03-08T00:10:06;100077.75;;;-2.13;75.85
77869;BME280;67231;59.144;37.934;2024-03-08T00:12:38;100082.00;;;-2.12;75.74
77869;BME280;67231;59.144;37.934;2024-03-08T00:15:09;100082.00;;;-2.12;75.84
77869;BME280;67231;59.144;37.934;2024-03-08T00:17:37;100071.63;;;-2.12;75.86
77869;BME280;67231;59.144;37.934;2024-03-08T00:20:04;100071.75;;;-2.15;75.93
77869;BME280;67231;59.144;37.934;2024-03-08T00:22:35;100075.16;;;-2.13;76.27
77869;BME280;67231;59.144;37.934;2024-03-08T00:25:03;100063.06;;;-2.14;75.96
77869;BME280;67231;59.144;37.934;2024-03-08T00:27:31;100065.72;;;-2.16;75.85
77869;BME280;67231;59.144;37.934;2024-03-08T00:29:58;100063.13;;;-2.16;76.03
77869;BME280;67231;59.144;37.934;2024-03-08T00:32:24;100052.78;;;-2.17;75.89
77869;BME280;67231;59.144;37.934;2024-03-08T00:34:51;100049.28;;;-2.16;76.13
77869;BME280;67231;59.144;37.934;2024-03-08T00:37:23;100049.28;;;-2.16;76.10
77869;BME280;67231;59.144;37.934;2024-03-08T00:39:51;100046.69;;;-2.16;76.03
77869;BME280;67231;59.144;37.934;2024-03-08T00:42:19;100046.69;;;-2.16;76.49
77869;BME280;67231;59.144;37.934;2024-03-08T00:44:47;100042.41;;;-2.17;76.34
77869;BME280;67231;59.144;37.934;2024-03-08T00:47:14;100050.25;;;-2.19;76.59
77869;BME280;67231;59.144;37.934;2024-03-08T00:49:41;100055.47;;;-2.19;76.50
77869;BME280;67231;59.144;37.934;2024-03-08T00:52:08;100046.69;;;-2.16;76.61
77869;BME280;67231;59.144;37.934;2024-03-08T00:54:35;100056.09;;;-2.14;76.61
77869;BME280;67231;59.144;37.934;2024-03-08T00:57:05;100054.34;;;-2.13;76.70
77869;BME280;67231;59.144;37.934;2024-03-08T00:59:33;100050.88;;;-2.14;76.27
77869;BME280;67231;59.144;37.934;2024-03-08T01:02:00;100038.75;;;-2.13;76.83
77869;BME280;67231;59.144;37.934;2024-03-08T01:04:27;100039.59;;;-2.13;76.44
77869;BME280;67231;59.144;37.934;2024-03-08T01:06:58;100044.78;;;-2.13;76.71
77869;BME280;67231;59.144;37.934;2024-03-08T01:09:26;100041.34;;;-2.13;76.57
77869;BME280;67231;59.144;37.934;2024-03-08T01:11:54;100043.88;;;-2.12;76.78
77869;BME280;67231;59.144;37.934;2024-03-08T01:14:25;100043.78;;;-2.10;76.87
77869;BME280;67231;59.144;37.934;2024-03-08T01:16:57;100025.53;;;-2.09;76.96
77869;BME280;67231;59.144;37.934;2024-03-08T01:19:23;100035.09;;;-2.09;76.61
77869;BME280;67231;59.144;37.934;2024-03-08T01:21:50;100030.72;;;-2.09;76.92
77869;BME280;67231;59.144;37.934;2024-03-08T01:24:17;100031.59;;;-2.08;76.97
77869;BME280;67231;59.144;37.934;2024-03-08T01:26:44;100033.31;;;-2.09;76.66
77869;BME280;67231;59.144;37.934;2024-03-08T01:29:11;100031.59;;;-2.08;77.22
77869;BME280;67231;59.144;37.934;2024-03-08T01:31:37;100032.41;;;-2.08;76.88
77869;BME280;67231;59.144;37.934;2024-03-08T01:34:04;100036.78;;;-2.08;76.98
77869;BME280;67231;59.144;37.934;2024-03-08T01:36:31;100027.28;;;-2.09;76.78
77869;BME280;67231;59.144;37.934;2024-03-08T01:38:57;100025.69;;;-2.12;76.62
77869;BME280;67231;59.144;37.934;2024-03-08T01:41:24;100039.59;;;-2.13;77.30
77869;BME280;67231;59.144;37.934;2024-03-08T01:43:50;100026.66;;;-2.14;76.97
77869;BME280;67231;59.144;37.934;2024-03-08T01:46:19;100028.50;;;-2.16;77.04
77869;BME280;67231;59.144;37.934;2024-03-08T01:48:50;100037.34;;;-2.21;77.03
77869;BME280;67231;59.144;37.934;2024-03-08T01:51:17;100030.69;;;-2.26;77.11
77869;BME280;67231;59.144;37.934;2024-03-08T01:53:46;100023.16;;;-2.32;77.48
77869;BME280;67231;59.144;37.934;2024-03-08T01:56:14;100026.88;;;-2.38;77.55
77869;BME280;67231;59.144;37.934;2024-03-08T01:58:44;100019.41;;;-2.46;77.66
77869;BME280;67231;59.144;37.934;2024-03-08T02:01:13;100028.34;;;-2.51;77.56
77869;BME280;67231;59.144;37.934;2024-03-08T02:03:45;100020.81;;;-2.58;77.85
77869;BME280;67231;59.144;37.934;2024-03-08T02:06:12;100023.69;;;-2.64;77.91
77869;BME280;67231;59.144;37.934;2024-03-08T02:08:42;100028.13;;;-2.66;77.76
77869;BME280;67231;59.144;37.934;2024-03-08T02:11:10;100029.16;;;-2.70;77.95
77869;BME280;67231;59.144;37.934;2024-03-08T02:13:37;100024.09;;;-2.73;77.92
77869;BME280;67231;59.144;37.934;2024-03-08T02:16:04;100030.22;;;-2.74;78.09
77869;BME280;67231;59.144;37.934;2024-03-08T02:18:34;100024.09;;;-2.73;78.11
77869;BME280;67231;59.144;37.934;2024-03-08T02:21:03;100023.06;;;-2.69;78.11
77869;BME280;67231;59.144;37.934;2024-03-08T02:23:30;100030.44;;;-2.60;77.97
77869;BME280;67231;59.144;37.934;2024-03-08T02:25:57;100027.44;;;-2.50;77.78
77869;BME280;67231;59.144;37.934;2024-03-08T02:28:24;100027.94;;;-2.42;77.96
77869;BME280;67231;59.144;37.934;2024-03-08T02:30:55;100032.69;;;-2.33;78.37
77869;BME280;67231;59.144;37.934;2024-03-08T02:33:23;100034.25;;;-2.29;77.87
77869;BME280;67231;59.144;37.934;2024-03-08T02:35:50;100033.22;;;-2.25;77.89
77869;BME280;67231;59.144;37.934;2024-03-08T02:38:20;100032.97;;;-2.20;77.78
77869;BME280;67231;59.144;37.934;2024-03-08T02:40:49;100044.94;;;-2.16;77.74
77869;BME280;67231;59.144;37.934;2024-03-08T02:43:16;100033.50;;;-2.12;78.03
77869;BME280;67231;59.144;37.934;2024-03-08T02:45:44;100047.03;;;-2.05;77.93
77869;BME280;67231;59.144;37.934;2024-03-08T02:48:15;100040.00;;;-2.03;77.90
77869;BME280;67231;59.144;37.934;2024-03-08T02:50:42;100041.38;;;-1.96;77.84
77869;BME280;67231;59.144;37.934;2024-03-08T02:53:11;100034.22;;;-1.91;77.30
77869;BME280;67231;59.144;37.934;2024-03-08T02:55:39;100028.81;;;-1.86;77.47
77869;BME280;67231;59.144;37.934;2024-03-08T02:58:08;100040.75;;;-1.82;77.82
77869;BME280;67231;59.144;37.934;2024-03-08T03:00:38;100032.88;;;-1.80;77.50
77869;BME280;67231;59.144;37.934;2024-03-08T03:03:05;100034.44;;;-1.76;77.43
77869;BME280;67231;59.144;37.934;2024-03-08T03:05:33;100024.63;;;-1.71;77.68
77869;BME280;67231;59.144;37.934;2024-03-08T03:08:00;100023.56;;;-1.67;77.41
77869;BME280;67231;59.144;37.934;2024-03-08T03:10:27;100024.34;;;-1.65;77.77
77869;BME280;67231;59.144;37.934;2024-03-08T03:12:53;100025.19;;;-1.65;77.74
77869;BME280;67231;59.144;37.934;2024-03-08T03:15:20;100016.47;;;-1.63;77.22
77869;BME280;67231;59.144;37.934;2024-03-08T03:17:48;100010.19;;;-1.59;77.46
77869;BME280;67231;59.144;37.934;2024-03-08T03:20:18;100005.66;;;-1.56;77.59
77869;BME280;67231;59.144;37.934;2024-03-08T03:22:59;100002.06;;;-1.53;77.31
77869;BME280;67231;59.144;37.934;2024-03-08T03:25:28;99992.50;;;-1.53;77.48
77869;BME280;67231;59.144;37.934;2024-03-08T03:28:07;99996.78;;;-1.52;77.48
77869;BME280;67231;59.144;37.934;2024-03-08T03:30:34;100002.91;;;-1.53;77.73
77869;BME280;67231;59.144;37.934;2024-03-08T03:33:02;100005.44;;;-1.51;77.79
77869;BME280;67231;59.144;37.934;2024-03-08T03:35:33;100005.38;;;-1.50;77.31
77869;BME280;67231;59.144;37.934;2024-03-08T03:38:00;100002.69;;;-1.48;77.43
77869;BME280;67231;59.144;37.934;2024-03-08T03:40:34;100005.22;;;-1.47;77.44
77869;BME280;67231;59.144;37.934;2024-03-08T03:43:01;99999.09;;;-1.45;77.59
77869;BME280;67231;59.144;37.934;2024-03-08T03:45:29;99997.41;;;-1.47;77.85
77869;BME280;67231;59.144;37.934;2024-03-08T03:47:56;100001.63;;;-1.44;77.73
77869;BME280;67231;59.144;37.934;2024-03-08T03:50:22;99998.09;;;-1.43;77.73
77869;BME280;67231;59.144;37.934;2024-03-08T03:52:49;99993.91;;;-1.45;77.46
77869;BME280;67231;59.144;37.934;2024-03-08T03:55:16;99986.16;;;-1.47;77.32
77869;BME280;67231;59.144;37.934;2024-03-08T03:57:44;99987.75;;;-1.44;77.31
77869;BME280;67231;59.144;37.934;2024-03-08T04:00:12;100006.84;;;-1.44;77.62
77869;BME280;67231;59.144;37.934;2024-03-08T04:02:42;99998.09;;;-1.43;77.20
77869;BME280;67231;59.144;37.934;2024-03-08T04:05:10;99998.00;;;-1.41;77.17
77869;BME280;67231;59.144;37.934;2024-03-08T04:07:38;99998.72;;;-1.38;77.55
77869;BME280;67231;59.144;37.934;2024-03-08T04:10:06;99995.09;;;-1.35;77.26
77869;BME280;67231;59.144;37.934;2024-03-08T04:12:34;99996.81;;;-1.34;77.35
77869;BME280;67231;59.144;37.934;2024-03-08T04:15:01;99992.44;;;-1.34;77.03
77869;BME280;67231;59.144;37.934;2024-03-08T04:17:30;99991.44;;;-1.31;77.38
77869;BME280;67231;59.144;37.934;2024-03-08T04:19:57;100000.00;;;-1.29;77.26
77869;BME280;67231;59.144;37.934;2024-03-08T04:22:24;99994.66;;;-1.26;77.36
77869;BME280;67231;59.144;37.934;2024-03-08T04:24:50;99995.47;;;-1.25;77.24
77869;BME280;67231;59.144;37.934;2024-03-08T04:27:17;99991.13;;;-1.25;77.15
77869;BME280;67231;59.144;37.934;2024-03-08T04:29:43;99982.41;;;-1.24;77.50
77869;BME280;67231;59.144;37.934;2024-03-08T04:32:10;99991.91;;;-1.23;76.84
77869;BME280;67231;59.144;37.934;2024-03-08T04:34:37;99991.00;;;-1.22;77.00
77869;BME280;67231;59.144;37.934;2024-03-08T04:37:03;99992.50;;;-1.18;77.55
77869;BME280;67231;59.144;37.934;2024-03-08T04:39:33;99984.53;;;-1.15;77.43
77869;BME280;67231;59.144;37.934;2024-03-08T04:42:02;99983.47;;;-1.11;77.30
77869;BME280;67231;59.144;37.934;2024-03-08T04:44:36;99981.47;;;-1.05;77.15
77869;BME280;67231;59.144;37.934;2024-03-08T04:47:06;99984.81;;;-1.03;77.07
77869;BME280;67231;59.144;37.934;2024-03-08T04:49:33;99984.50;;;-0.97;76.90
77869;BME280;67231;59.144;37.934;2024-03-08T04:52:02;99982.44;;;-0.90;77.00
77869;BME280;67231;59.144;37.934;2024-03-08T04:54:30;99987.56;;;-0.89;76.63
77869;BME280;67231;59.144;37.934;2024-03-08T04:56:57;99988.16;;;-0.84;76.76
77869;BME280;67231;59.144;37.934;2024-03-08T04:59:27;99983.38;;;-0.76;76.99
77869;BME280;67231;59.144;37.934;2024-03-08T05:01:54;99986.59;;;-0.70;76.79
77869;BME280;67231;59.144;37.934;2024-03-08T05:04:21;99989.81;;;-0.65;76.44
77869;BME280;67231;59.144;37.934;2024-03-08T05:06:48;99980.13;;;-0.63;76.87
77869;BME280;67231;59.144;37.934;2024-03-08T05:09:14;99981.22;;;-0.67;76.26
77869;BME280;67231;59.144;37.934;2024-03-08T05:11:45;99984.66;;;-0.67;76.34
77869;BME280;67231;59.144;37.934;2024-03-08T05:14:14;99988.09;;;-0.66;76.62
77869;BME280;67231;59.144;37.934;2024-03-08T05:16:46;99982.91;;;-0.66;76.73
77869;BME280;67231;59.144;37.934;2024-03-08T05:19:15;99984.59;;;-0.65;76.77
77869;BME280;67231;59.144;37.934;2024-03-08T05:21:47;99984.44;;;-0.62;76.68
77869;BME280;67231;59.144;37.934;2024-03-08T05:24:14;99985.19;;;-0.60;76.83
77869;BME280;67231;59.144;37.934;2024-03-08T05:26:42;99983.09;;;-0.53;76.74
77869;BME280;67231;59.144;37.934;2024-03-08T05:29:08;99975.03;;;-0.49;76.72
77869;BME280;67231;59.144;37.934;2024-03-08T05:31:53;99978.91;;;-0.40;76.75
77869;BME280;67231;59.144;37.934;2024-03-08T05:34:20;99975.84;;;-0.32;76.81
77869;BME280;67231;59.144;37.934;2024-03-08T05:36:48;99987.81;;;-0.28;76.71
77869;BME280;67231;59.144;37.934;2024-03-08T05:39:18;99981.69;;;-0.27;76.61
77869;BME280;67231;59.144;37.934;2024-03-08T05:41:46;99972.00;;;-0.25;76.62
77869;BME280;67231;59.144;37.934;2024-03-08T05:44:13;99975.19;;;-0.20;76.73
77869;BME280;67231;59.144;37.934;2024-03-08T05:46:40;99974.69;;;-0.11;76.39
77869;BME280;67231;59.144;37.934;2024-03-08T05:49:07;99970.47;;;0.03;75.84
77869;BME280;67231;59.144;37.934;2024-03-08T05:51:37;99973.63;;;0.24;75.75
77869;BME280;67231;59.144;37.934;2024-03-08T05:54:12;99967.31;;;0.58;75.02
77869;BME280;67231;59.144;37.934;2024-03-08T05:56:39;99970.25;;;0.97;74.70
77869;BME280;67231;59.144;37.934;2024-03-08T05:59:11;99967.56;;;1.41;73.75
77869;BME280;67231;59.144;37.934;2024-03-08T06:01:37;99962.44;;;1.81;73.00
77869;BME280;67231;59.144;37.934;2024-03-08T06:04:04;99961.16;;;2.02;72.03
77869;BME280;67231;59.144;37.934;2024-03-08T06:06:31;99962.19;;;1.99;72.12
77869;BME280;67231;59.144;37.934;2024-03-08T06:08:57;99964.44;;;1.91;72.35
77869;BME280;67231;59.144;37.934;2024-03-08T06:11:26;99962.34;;;1.83;72.80
77869;BME280;67231;59.144;37.934;2024-03-08T06:13:56;99960.03;;;1.78;72.04
77869;BME280;67231;59.144;37.934;2024-03-08T06:16:26;99964.50;;;1.76;72.12
77869;BME280;67231;59.144;37.934;2024-03-08T06:18:56;99957.44;;;1.64;72.25
77869;BME280;67231;59.144;37.934;2024-03-08T06:21:24;99961.34;;;1.57;72.38
77869;BME280;67231;59.144;37.934;2024-03-08T06:23:54;99970.16;;;1.56;72.29
77869;BME280;67231;59.144;37.934;2024-03-08T06:26:26;99969.59;;;1.51;72.18
77869;BME280;67231;59.144;37.934;2024-03-08T06:28:55;99952.31;;;1.48;71.90
77869;BME280;67231;59.144;37.934;2024-03-08T06:31:22;99955.94;;;1.60;71.95
77869;BME280;67231;59.144;37.934;2024-03-08T06:33:49;99964.28;;;1.79;72.10
77869;BME280;67231;59.144;37.934;2024-03-08T06:36:18;99955.56;;;1.66;71.58
77869;BME280;67231;59.144;37.934;2024-03-08T06:38:48;99959.78;;;1.69;72.10
77869;BME280;67231;59.144;37.934;2024-03-08T06:41:15;99960.22;;;2.03;71.02
77869;BME280;67231;59.144;37.934;2024-03-08T06:43:46;99950.50;;;2.05;71.29
77869;BME280;67231;59.144;37.934;2024-03-08T06:46:15;99953.00;;;2.06;71.37
77869;BME280;67231;59.144;37.934;2024-03-08T06:48:42;99946.88;;;2.86;70.40
77869;BME280;67231;59.144;37.934;2024-03-08T06:51:08;99948.66;;;4.09;68.37
77869;BME280;67231;59.144;37.934;2024-03-08T06:53:37;99944.63;;;4.05;68.29
77869;BME280;67231;59.144;37.934;2024-03-08T06:56:10;99941.28;;;3.79;67.67
77869;BME280;67231;59.144;37.934;2024-03-08T06:58:37;99938.31;;;3.71;68.33
77869;BME280;67231;59.144;37.934;2024-03-08T07:01:03;99948.97;;;3.93;67.90
77869;BME280;67231;59.144;37.934;2024-03-08T07:03:33;99950.19;;;4.00;66.63
77869;BME280;67231;59.144;37.934;2024-03-08T07:06:00;99937.56;;;4.06;66.88
77869;BME280;67231;59.144;37.934;2024-03-08T07:08:33;99942.69;;;4.31;66.63
77869;BME280;67231;59.144;37.934;2024-03-08T07:10:59;99937.66;;;4.28;66.27
77869;BME280;67231;59.144;37.934;2024-03-08T07:13:26;99947.41;;;3.91;66.03
77869;BME280;67231;59.144;37.934;2024-03-08T07:15:56;99944.72;;;3.42;67.20
77869;BME280;67231;59.144;37.934;2024-03-08T07:18:22;99941.63;;;2.99;67.92
77869;BME280;67231;59.144;37.934;2024-03-08T07:20:49;99942.25;;;2.77;68.59
77869;BME280;67231;59.144;37.934;2024-03-08T07:23:15;99940.06;;;2.70;68.39
77869;BME280;67231;59.144;37.934;2024-03-08T07:26:01;99939.31;;;2.68;68.61
77869;BME280;67231;59.144;37.934;2024-03-08T07:28:27;99940.06;;;2.70;68.56
77869;BME280;67231;59.144;37.934;2024-03-08T07:30:58;99938.47;;;2.68;68.51
77869;BME280;67231;59.144;37.934;2024-03-08T07:33:42;99935.13;;;2.66;68.91
77869;BME280;67231;59.144;37.934;2024-03-08T07:36:09;99949.16;;;2.65;68.98
77869;BME280;67231;59.144;37.934;2024-03-08T07:38:36;99931.56;;;2.67;68.77
77869;BME280;67231;59.144;37.934;2024-03-08T07:41:03;99941.19;;;2.79;68.89
77869;BME280;67231;59.144;37.934;2024-03-08T07:43:29;99941.44;;;2.89;68.40
77869;BME280;67231;59.144;37.934;2024-03-08T07:45:56;99950.94;;;2.77;68.69
77869;BME280;67231;59.144;37.934;2024-03-08T07:48:23;99941.63;;;2.60;69.05
77869;BME280;67231;59.144;37.934;2024-03-08T07:50:49;99950.50;;;2.45;69.28
77869;BME280;67231;59.144;37.934;2024-03-08T07:53:16;99949.75;;;2.30;69.77
77869;BME280;67231;59.144;37.934;2024-03-08T07:55:45;99945.94;;;2.21;70.25
77869;BME280;67231;59.144;37.934;2024-03-08T07:58:11;99955.28;;;2.25;69.92
77869;BME280;67231;59.144;37.934;2024-03-08T08:00:39;99946.16;;;2.31;70.06
77869;BME280;67231;59.144;37.934;2024-03-08T08:03:09;99954.56;;;2.36;69.55
77869;BME280;67231;59.144;37.934;2024-03-08T08:05:35;99944.72;;;2.40;70.03
77869;BME280;67231;59.144;37.934;2024-03-08T08:08:05;99949.09;;;2.39;69.77
77869;BME280;67231;59.144;37.934;2024-03-08T08:10:32;99950.16;;;2.36;69.56
77869;BME280;67231;59.144;37.934;2024-03-08T08:12:59;99951.53;;;2.42;69.95
77869;BME280;67231;59.144;37.934;2024-03-08T08:15:26;99950.19;;;2.49;69.80
77869;BME280;67231;59.144;37.934;2024-03-08T08:17:54;99953.34;;;2.54;69.67
77869;BME280;67231;59.144;37.934;2024-03-08T08:20:21;99965.63;;;2.67;69.27
77869;BME280;67231;59.144;37.934;2024-03-08T08:22:49;99962.91;;;2.68;68.53
77869;BME280;67231;59.144;37.934;2024-03-08T08:25:16;99961.31;;;2.66;68.38
77869;BME280;67231;59.144;37.934;2024-03-08T08:27:47;99959.00;;;2.61;68.40
77869;BME280;67231;59.144;37.934;2024-03-08T08:30:14;99964.34;;;2.60;67.99
77869;BME280;67231;59.144;37.934;2024-03-08T08:32:40;99960.78;;;2.61;67.50
77869;BME280;67231;59.144;37.934;2024-03-08T08:35:09;99958.09;;;2.75;66.83
77869;BME280;67231;59.144;37.934;2024-03-08T08:37:38;99957.47;;;2.84;66.48
77869;BME280;67231;59.144;37.934;2024-03-08T08:40:05;99966.16;;;2.85;66.56
77869;BME280;67231;59.144;37.934;2024-03-08T08:42:38;99971.09;;;2.89;66.35
77869;BME280;67231;59.144;37.934;2024-03-08T08:45:06;99964.56;;;2.95;65.60
77869;BME280;67231;59.144;37.934;2024-03-08T08:47:36;99959.88;;;3.13;65.17
77869;BME280;67231;59.144;37.934;2024-03-08T08:50:03;99963.41;;;3.38;64.56
77869;BME280;67231;59.144;37.934;2024-03-08T08:52:33;99964.56;;;3.71;64.14
77869;BME280;67231;59.144;37.934;2024-03-08T08:55:01;99973.09;;;3.98;63.82
77869;BME280;67231;59.144;37.934;2024-03-08T08:57:30;99965.06;;;4.13;62.46
77869;BME280;67231;59.144;37.934;2024-03-08T08:59:59;99971.97;;;4.14;62.27
77869;BME280;67231;59.144;37.934;2024-03-08T09:02:26;99968.25;;;4.05;61.86
77869;BME280;67231;59.144;37.934;2024-03-08T09:04:53;99977.53;;;3.85;61.58
77869;BME280;67231;59.144;37.934;2024-03-08T09:07:19;99980.88;;;3.63;61.43
77869;BME280;67231;59.144;37.934;2024-03-08T09:09:46;99987.19;;;3.60;61.19
77869;BME280;67231;59.144;37.934;2024-03-08T09:12:13;99972.66;;;3.80;60.74
77869;BME280;67231;59.144;37.934;2024-03-08T09:14:41;99974.09;;;3.85;60.13
77869;BME280;67231;59.144;37.934;2024-03-08T09:17:08;99984.47;;;3.86;60.33
77869;BME280;67231;59.144;37.934;2024-03-08T09:19:35;99981.53;;;3.91;60.11
77869;BME280;67231;59.144;37.934;2024-03-08T09:22:04;99994.53;;;3.92;59.70
77869;BME280;67231;59.144;37.934;2024-03-08T09:24:30;100002.88;;;3.73;58.38
77869;BME280;67231;59.144;37.934;2024-03-08T09:26:57;100000.88;;;3.77;57.61
77869;BME280;67231;59.144;37.934;2024-03-08T09:29:29;99993.69;;;3.68;57.35
77869;BME280;67231;59.144;37.934;2024-03-08T09:31:56;99996.03;;;3.83;56.86
77869;BME280;67231;59.144;37.934;2024-03-08T09:34:23;99998.59;;;3.96;56.77
77869;BME280;67231;59.144;37.934;2024-03-08T09:36:50;100000.63;;;3.93;55.63
77869;BME280;67231;59.144;37.934;2024-03-08T09:39:18;99992.97;;;4.14;55.97
77869;BME280;67231;59.144;37.934;2024-03-08T09:41:47;99993.66;;;4.53;54.40
77869;BME280;67231;59.144;37.934;2024-03-08T09:44:15;99997.22;;;4.52;54.57
77869;BME280;67231;59.144;37.934;2024-03-08T09:46:42;99993.69;;;4.64;54.08
77869;BME280;67231;59.144;37.934;2024-03-08T09:49:09;99983.78;;;4.68;53.76
77869;BME280;67231;59.144;37.934;2024-03-08T09:51:38;99992.13;;;4.37;54.68
77869;BME280;67231;59.144;37.934;2024-03-08T09:54:09;99995.88;;;4.22;54.42
77869;BME280;67231;59.144;37.934;2024-03-08T09:56:36;100001.38;;;4.19;55.19
77869;BME280;67231;59.144;37.934;2024-03-08T09:59:02;99998.09;;;3.91;54.67
77869;BME280;67231;59.144;37.934;2024-03-08T10:01:32;100002.81;;;3.62;55.27
77869;BME280;67231;59.144;37.934;2024-03-08T10:03:58;100000.31;;;3.35;56.26
77869;BME280;67231;59.144;37.934;2024-03-08T10:06:28;99995.91;;;3.48;55.95
77869;BME280;67231;59.144;37.934;2024-03-08T10:08:57;99989.56;;;3.76;55.78
77869;BME280;67231;59.144;37.934;2024-03-08T10:11:32;99987.94;;;4.11;55.14
77869;BME280;67231;59.144;37.934;2024-03-08T10:14:00;99984.28;;;4.13;54.80
77869;BME280;67231;59.144;37.934;2024-03-08T10:16:28;99990.78;;;4.21;54.05
77869;BME280;67231;59.144;37.934;2024-03-08T10:18:57;99989.97;;;4.31;53.39
77869;BME280;67231;59.144;37.934;2024-03-08T10:21:23;99985.94;;;4.38;53.33
77869;BME280;67231;59.144;37.934;2024-03-08T10:23:55;99995.22;;;4.67;52.43
77869;BME280;67231;59.144;37.934;2024-03-08T10:26:25;100029.84;;;4.36;54.01
77869;BME280;67231;59.144;37.934;2024-03-08T10:28:55;100029.91;;;3.50;57.00
77869;BME280;67231;59.144;37.934;2024-03-08T10:31:28;100051.19;;;2.53;59.40
77869;BME280;67231;59.144;37.934;2024-03-08T10:33:57;100041.47;;;1.87;61.75
77869;BME280;67231;59.144;37.934;2024-03-08T10:36:24;100042.78;;;1.65;62.48
77869;BME280;67231;59.144;37.934;2024-03-08T10:38:51;100041.69;;;1.55;63.05
77869;BME280;67231;59.144;37.934;2024-03-08T10:41:24;100036.91;;;1.47;63.25
77869;BME280;67231;59.144;37.934;2024-03-08T10:46:57;100038.53;;;1.50;62.94
77869;BME280;67231;59.144;37.934;2024-03-08T10:49:32;100026.44;;;1.61;63.11
77869;BME280;67231;59.144;37.934;2024-03-08T10:52:05;100025.91;;;2.12;61.42
77869;BME280;67231;59.144;37.934;2024-03-08T10:54:36;100021.34;;;2.56;61.03
77869;BME280;67231;59.144;37.934;2024-03-08T10:57:07;100029.03;;;2.72;60.06
77869;BME280;67231;59.144;37.934;2024-03-08T10:59:35;100024.09;;;2.80;59.15
77869;BME280;67231;59.144;37.934;2024-03-08T11:02:02;100024.53;;;3.00;58.62
77869;BME280;67231;59.144;37.934;2024-03-08T11:04:37;100038.94;;;3.20;58.02
77869;BME280;67231;59.144;37.934;2024-03-08T11:07:06;100029.47;;;3.43;57.49
77869;BME280;67231;59.144;37.934;2024-03-08T11:09:37;100014.16;;;3.50;56.85
77869;BME280;67231;59.144;37.934;2024-03-08T11:12:25;100035.34;;;3.34;56.45
77869;BME280;67231;59.144;37.934;2024-03-08T11:14:53;100032.63;;;2.97;56.06
77869;BME280;67231;59.144;37.934;2024-03-08T11:20:00;100041.03;;;2.49;54.88
77869;BME280;67231;59.144;37.934;2024-03-08T11:22:33;100030.94;;;2.15;55.06
77869;BME280;67231;59.144;37.934;2024-03-08T11:25:02;100036.06;;;1.90;55.33
77869;BME280;67231;59.144;37.934;2024-03-08T11:27:31;100043.81;;;1.91;55.24
77869;BME280;67231;59.144;37.934;2024-03-08T11:30:03;100034.72;;;1.97;54.73
77869;BME280;67231;59.144;37.934;2024-03-08T11:32:38;100038.19;;;1.97;54.41
77869;BME280;67231;59.144;37.934;2024-03-08T11:35:20;100038.31;;;1.81;53.93
77869;BME280;67231;59.144;37.934;2024-03-08T11:37:49;100042.88;;;1.78;53.42
77869;BME280;67231;59.144;37.934;2024-03-08T11:40:17;100044.53;;;1.93;53.41
77869;BME280;67231;59.144;37.934;2024-03-08T11:42:46;100042.91;;;2.05;53.36
77869;BME280;67231;59.144;37.934;2024-03-08T11:45:18;100049.31;;;2.01;53.62
77869;BME280;67231;59.144;37.934;2024-03-08T11:47:48;100054.72;;;1.98;52.90
77869;BME280;67231;59.144;37.934;2024-03-08T11:50:15;100048.34;;;2.02;52.78
77869;BME280;67231;59.144;37.934;2024-03-08T11:52:43;100045.72;;;2.02;53.45
77869;BME280;67231;59.144;37.934;2024-03-08T11:55:11;100041.53;;;1.99;53.35
77869;BME280;67231;59.144;37.934;2024-03-08T11:57:39;100053.22;;;1.94;53.61
77869;BME280;67231;59.144;37.934;2024-03-08T12:00:06;100052.41;;;1.93;53.89
77869;BME280;67231;59.144;37.934;2024-03-08T12:02:35;100058.47;;;1.94;54.06
77869;BME280;67231;59.144;37.934;2024-03-08T12:05:07;100060.91;;;1.82;54.47
77869;BME280;67231;59.144;37.934;2024-03-08T12:07:35;100061.69;;;1.70;55.23
77869;BME280;67231;59.144;37.934;2024-03-08T12:10:22;100059.06;;;1.56;56.00
77869;BME280;67231;59.144;37.934;2024-03-08T12:12:53;100069.63;;;1.40;57.03
77869;BME280;67231;59.144;37.934;2024-03-08T12:15:22;100071.38;;;1.39;57.00
77869;BME280;67231;59.144;37.934;2024-03-08T12:17:50;100067.28;;;1.35;56.95
77869;BME280;67231;59.144;37.934;2024-03-08T12:20:19;100073.41;;;1.34;57.53
77869;BME280;67231;59.144;37.934;2024-03-08T12:22:48;100065.03;;;1.29;57.86
77869;BME280;67231;59.144;37.934;2024-03-08T12:25:15;100063.25;;;1.30;57.78
77869;BME280;67231;59.144;37.934;2024-03-08T12:27:42;100068.09;;;1.36;58.49
77869;BME280;67231;59.144;37.934;2024-03-08T12:30:26;100073.63;;;1.45;58.45
77869;BME280;67231;59.144;37.934;2024-03-08T12:32:57;100078.13;;;1.58;58.08
77869;BME280;67231;59.144;37.934;2024-03-08T12:35:29;100068.75;;;1.82;57.77
77869;BME280;67231;59.144;37.934;2024-03-08T12:37:59;100093.06;;;2.26;57.08
77869;BME280;67231;59.144;37.934;2024-03-08T12:40:27;100110.88;;;2.48;56.23
77869;BME280;67231;59.144;37.934;2024-03-08T12:42:55;100103.84;;;2.22;56.89
77869;BME280;67231;59.144;37.934;2024-03-08T12:45:25;100109.50;;;1.87;57.29
77869;BME280;67231;59.144;37.934;2024-03-08T12:47:53;100109.22;;;1.48;58.03
77869;BME280;67231;59.144;37.934;2024-03-08T12:50:21;100101.22;;;1.21;58.73
77869;BME280;67231;59.144;37.934;2024-03-08T12:52:48;100107.00;;;1.12;58.71
77869;BME280;67231;59.144;37.934;2024-03-08T12:55:15;100121.84;;;1.11;58.67
77869;BME280;67231;59.144;37.934;2024-03-08T12:57:42;100109.59;;;1.12;58.30
77869;BME280;67231;59.144;37.934;2024-03-08T13:00:09;100126.38;;;1.07;nan
77869;BME280;67231;59.144;37.934;2024-03-08T13:02:39;100125.97;;;0.99;58.33